sensor_id;sensor_type;location;lat;lon;timestamp;temperature;humidity
32217;DHT22;18709;51.140;4.088;2022-12-18T00:00:47;-0.30;85.20
32217;DHT22;18709;51.140;4.088;2022-12-18T00:03:15;-0.30;85.30
32217;DHT22;18709;51.140;4.088;2022-12-18T00:05:52;-0.30;85.00
32217;DHT22;18709;51.140;4.088;2022-12-18T00:08:18;-0.40;85.10
32217;DHT22;18709;51.140;4.088;2022-12-18T00:10:45;-0.40;85.00
32217;DHT22;18709;51.140;4.088;2022-12-18T00:13:11;-0.40;84.90
32217;DHT22;18709;51.140;4.088;2022-12-18T00:15:38;-0.30;84.70
32217;DHT22;18709;51.140;4.088;2022-12-18T00:18:04;-0.40;84.60
32217;DHT22;18709;51.140;4.088;2022-12-18T00:20:30;-0.50;84.90
32217;DHT22;18709;51.140;4.088;2022-12-18T00:22:56;-0.60;85.40
32217;DHT22;18709;51.140;4.088;2022-12-18T00:25:22;-0.50;84.90
32217;DHT22;18709;51.140;4.088;2022-12-18T00:27:48;-0.50;84.70
32217;DHT22;18709;51.140;4.088;2022-12-18T00:30:14;-0.50;84.70
32217;DHT22;18709;51.140;4.088;2022-12-18T00:32:40;-0.60;84.50
32217;DHT22;18709;51.140;4.088;2022-12-18T00:35:06;-0.50;84.10
32217;DHT22;18709;51.140;4.088;2022-12-18T00:37:33;-0.50;84.00
32217;DHT22;18709;51.140;4.088;2022-12-18T00:39:59;-0.50;84.70
32217;DHT22;18709;51.140;4.088;2022-12-18T00:42:24;-0.50;85.30
32217;DHT22;18709;51.140;4.088;2022-12-18T00:45:09;-0.50;85.20
32217;DHT22;18709;51.140;4.088;2022-12-18T00:47:34;-0.50;85.30
32217;DHT22;18709;51.140;4.088;2022-12-18T00:50:00;-0.50;85.70
32217;DHT22;18709;51.140;4.088;2022-12-18T00:52:25;-0.60;85.30
32217;DHT22;18709;51.140;4.088;2022-12-18T00:54:51;-0.60;85.90
32217;DHT22;18709;51.140;4.088;2022-12-18T00:57:17;-0.70;86.50
32217;DHT22;18709;51.140;4.088;2022-12-18T00:59:42;-0.70;86.10
32217;DHT22;18709;51.140;4.088;2022-12-18T01:02:08;-0.80;86.60
32217;DHT22;18709;51.140;4.088;2022-12-18T01:04:34;-0.70;86.00
32217;DHT22;18709;51.140;4.088;2022-12-18T01:07:00;-0.60;84.70
32217;DHT22;18709;51.140;4.088;2022-12-18T01:09:26;-0.50;84.10
32217;DHT22;18709;51.140;4.088;2022-12-18T01:11:51;-0.50;83.70
32217;DHT22;18709;51.140;4.088;2022-12-18T01:14:17;-0.50;83.40
32217;DHT22;18709;51.140;4.088;2022-12-18T01:16:43;-0.50;83.50
32217;DHT22;18709;51.140;4.088;2022-12-18T01:19:08;-0.50;83.30
32217;DHT22;18709;51.140;4.088;2022-12-18T01:21:34;-0.60;83.60
32217;DHT22;18709;51.140;4.088;2022-12-18T01:24:00;-0.60;83.40
32217;DHT22;18709;51.140;4.088;2022-12-18T01:26:26;-0.50;83.20
32217;DHT22;18709;51.140;4.088;2022-12-18T01:28:55;-0.60;83.10
32217;DHT22;18709;51.140;4.088;2022-12-18T01:31:25;-0.70;83.50
32217;DHT22;18709;51.140;4.088;2022-12-18T01:33:51;-0.70;83.90
32217;DHT22;18709;51.140;4.088;2022-12-18T01:36:23;-0.70;83.90
32217;DHT22;18709;51.140;4.088;2022-12-18T01:38:50;-0.80;84.70
32217;DHT22;18709;51.140;4.088;2022-12-18T01:41:18;-0.90;85.30
32217;DHT22;18709;51.140;4.088;2022-12-18T01:46:13;-1.00;85.30
32217;DHT22;18709;51.140;4.088;2022-12-18T01:48:39;-0.90;85.00
32217;DHT22;18709;51.140;4.088;2022-12-18T01:51:08;-0.90;84.90
32217;DHT22;18709;51.140;4.088;2022-12-18T01:53:34;-1.00;85.40
32217;DHT22;18709;51.140;4.088;2022-12-18T01:56:01;-1.10;85.50
32217;DHT22;18709;51.140;4.088;2022-12-18T01:58:48;-1.10;84.70
32217;DHT22;18709;51.140;4.088;2022-12-18T02:01:17;-1.00;84.40
32217;DHT22;18709;51.140;4.088;2022-12-18T02:03:44;-0.90;83.30
32217;DHT22;18709;51.140;4.088;2022-12-18T02:06:15;-0.90;83.20
32217;DHT22;18709;51.140;4.088;2022-12-18T02:09:06;-0.90;83.00
32217;DHT22;18709;51.140;4.088;2022-12-18T02:11:53;-1.00;82.70
32217;DHT22;18709;51.140;4.088;2022-12-18T02:14:39;-1.00;82.50
32217;DHT22;18709;51.140;4.088;2022-12-18T02:17:08;-1.10;82.80
32217;DHT22;18709;51.140;4.088;2022-12-18T02:22:40;-1.10;83.10
32217;DHT22;18709;51.140;4.088;2022-12-18T02:28:13;-1.20;83.90
32217;DHT22;18709;51.140;4.088;2022-12-18T02:30:42;-1.30;84.10
32217;DHT22;18709;51.140;4.088;2022-12-18T02:33:09;-1.30;84.20
32217;DHT22;18709;51.140;4.088;2022-12-18T02:35:37;-1.30;84.10
32217;DHT22;18709;51.140;4.088;2022-12-18T02:38:04;-1.20;84.00
32217;DHT22;18709;51.140;4.088;2022-12-18T02:40:30;-1.20;84.00
32217;DHT22;18709;51.140;4.088;2022-12-18T02:43:03;-1.20;83.90
32217;DHT22;18709;51.140;4.088;2022-12-18T02:45:32;-1.30;84.00
32217;DHT22;18709;51.140;4.088;2022-12-18T02:47:57;-1.30;83.60
32217;DHT22;18709;51.140;4.088;2022-12-18T03:01:42;-1.30;85.10
32217;DHT22;18709;51.140;4.088;2022-12-18T03:04:20;-1.30;85.20
32217;DHT22;18709;51.140;4.088;2022-12-18T03:06:50;-1.40;85.20
32217;DHT22;18709;51.140;4.088;2022-12-18T03:09:32;-1.40;85.40
32217;DHT22;18709;51.140;4.088;2022-12-18T03:12:14;-1.40;85.70
32217;DHT22;18709;51.140;4.088;2022-12-18T03:17:32;-1.50;85.80
32217;DHT22;18709;51.140;4.088;2022-12-18T03:20:04;-1.50;85.80
32217;DHT22;18709;51.140;4.088;2022-12-18T03:22:32;-1.50;85.50
32217;DHT22;18709;51.140;4.088;2022-12-18T03:25:00;-1.40;85.60
32217;DHT22;18709;51.140;4.088;2022-12-18T03:27:30;-1.40;85.50
32217;DHT22;18709;51.140;4.088;2022-12-18T03:30:07;-1.50;85.50
32217;DHT22;18709;51.140;4.088;2022-12-18T03:32:40;-1.50;84.60
32217;DHT22;18709;51.140;4.088;2022-12-18T03:35:08;-1.50;83.80
32217;DHT22;18709;51.140;4.088;2022-12-18T03:37:35;-1.40;83.40
32217;DHT22;18709;51.140;4.088;2022-12-18T03:40:02;-1.40;82.90
32217;DHT22;18709;51.140;4.088;2022-12-18T03:42:53;-1.40;82.60
32217;DHT22;18709;51.140;4.088;2022-12-18T03:45:31;-1.40;82.80
32217;DHT22;18709;51.140;4.088;2022-12-18T03:48:22;-1.40;82.50
32217;DHT22;18709;51.140;4.088;2022-12-18T03:51:15;-1.40;82.20
32217;DHT22;18709;51.140;4.088;2022-12-18T03:54:09;-1.50;82.60
32217;DHT22;18709;51.140;4.088;2022-12-18T03:56:45;-1.50;82.70
32217;DHT22;18709;51.140;4.088;2022-12-18T03:59:14;-1.60;83.10
32217;DHT22;18709;51.140;4.088;2022-12-18T04:01:45;-1.60;83.10
32217;DHT22;18709;51.140;4.088;2022-12-18T04:04:13;-1.60;83.30
32217;DHT22;18709;51.140;4.088;2022-12-18T04:06:40;-1.60;83.30
32217;DHT22;18709;51.140;4.088;2022-12-18T04:09:07;-1.60;83.40
32217;DHT22;18709;51.140;4.088;2022-12-18T04:11:33;-1.60;83.30
32217;DHT22;18709;51.140;4.088;2022-12-18T04:13:59;-1.50;83.20
32217;DHT22;18709;51.140;4.088;2022-12-18T04:16:28;-1.60;83.20
32217;DHT22;18709;51.140;4.088;2022-12-18T04:18:54;-1.60;83.30
32217;DHT22;18709;51.140;4.088;2022-12-18T04:21:20;-1.70;83.30
32217;DHT22;18709;51.140;4.088;2022-12-18T04:23:46;-1.60;82.90
32217;DHT22;18709;51.140;4.088;2022-12-18T04:26:11;-1.60;82.40
32217;DHT22;18709;51.140;4.088;2022-12-18T04:28:37;-1.50;82.00
32217;DHT22;18709;51.140;4.088;2022-12-18T04:31:03;-1.50;81.90
32217;DHT22;18709;51.140;4.088;2022-12-18T04:33:29;-1.70;82.10
32217;DHT22;18709;51.140;4.088;2022-12-18T04:35:54;-1.70;82.10
32217;DHT22;18709;51.140;4.088;2022-12-18T04:38:20;-1.70;81.50
32217;DHT22;18709;51.140;4.088;2022-12-18T04:40:45;-1.70;81.20
32217;DHT22;18709;51.140;4.088;2022-12-18T04:43:11;-1.70;81.40
32217;DHT22;18709;51.140;4.088;2022-12-18T04:45:37;-1.70;82.20
32217;DHT22;18709;51.140;4.088;2022-12-18T04:48:03;-1.70;82.80
32217;DHT22;18709;51.140;4.088;2022-12-18T04:50:30;-1.70;82.60
32217;DHT22;18709;51.140;4.088;2022-12-18T04:52:56;-1.70;82.60
32217;DHT22;18709;51.140;4.088;2022-12-18T04:55:21;-1.70;82.90
32217;DHT22;18709;51.140;4.088;2022-12-18T04:57:50;-1.70;82.90
32217;DHT22;18709;51.140;4.088;2022-12-18T05:00:15;-1.80;83.20
32217;DHT22;18709;51.140;4.088;2022-12-18T05:02:41;-1.70;83.50
32217;DHT22;18709;51.140;4.088;2022-12-18T05:05:07;-1.80;83.60
32217;DHT22;18709;51.140;4.088;2022-12-18T05:07:33;-1.80;83.60
32217;DHT22;18709;51.140;4.088;2022-12-18T05:09:59;-1.80;83.80
32217;DHT22;18709;51.140;4.088;2022-12-18T05:12:24;-1.80;84.10
32217;DHT22;18709;51.140;4.088;2022-12-18T05:14:50;-1.80;84.20
32217;DHT22;18709;51.140;4.088;2022-12-18T05:17:16;-1.70;84.30
32217;DHT22;18709;51.140;4.088;2022-12-18T05:19:41;-1.80;84.20
32217;DHT22;18709;51.140;4.088;2022-12-18T05:22:07;-1.80;84.50
32217;DHT22;18709;51.140;4.088;2022-12-18T05:24:33;-1.80;84.70
32217;DHT22;18709;51.140;4.088;2022-12-18T05:26:59;-1.70;84.80
32217;DHT22;18709;51.140;4.088;2022-12-18T05:29:24;-1.70;84.60
32217;DHT22;18709;51.140;4.088;2022-12-18T05:31:50;-1.70;85.10
32217;DHT22;18709;51.140;4.088;2022-12-18T05:34:16;-1.70;84.90
32217;DHT22;18709;51.140;4.088;2022-12-18T05:36:42;-1.70;84.50
32217;DHT22;18709;51.140;4.088;2022-12-18T05:39:07;-1.70;84.80
32217;DHT22;18709;51.140;4.088;2022-12-18T05:41:33;-1.60;84.20
32217;DHT22;18709;51.140;4.088;2022-12-18T05:43:59;-1.50;83.90
32217;DHT22;18709;51.140;4.088;2022-12-18T05:46:25;-1.50;83.40
32217;DHT22;18709;51.140;4.088;2022-12-18T05:48:51;-1.50;83.80
32217;DHT22;18709;51.140;4.088;2022-12-18T05:51:19;-1.50;83.90
32217;DHT22;18709;51.140;4.088;2022-12-18T05:53:45;-1.50;83.40
32217;DHT22;18709;51.140;4.088;2022-12-18T05:56:14;-1.50;83.40
32217;DHT22;18709;51.140;4.088;2022-12-18T05:58:40;-1.60;84.30
32217;DHT22;18709;51.140;4.088;2022-12-18T06:01:17;-1.60;84.00
32217;DHT22;18709;51.140;4.088;2022-12-18T06:03:44;-1.60;83.40
32217;DHT22;18709;51.140;4.088;2022-12-18T06:06:24;-1.50;83.30
32217;DHT22;18709;51.140;4.088;2022-12-18T06:08:50;-1.50;83.10
32217;DHT22;18709;51.140;4.088;2022-12-18T06:11:21;-1.40;82.50
32217;DHT22;18709;51.140;4.088;2022-12-18T06:13:50;-1.40;82.50
32217;DHT22;18709;51.140;4.088;2022-12-18T06:16:16;-1.50;82.40
32217;DHT22;18709;51.140;4.088;2022-12-18T06:18:42;-1.50;82.80
32217;DHT22;18709;51.140;4.088;2022-12-18T06:21:08;-1.50;83.10
32217;DHT22;18709;51.140;4.088;2022-12-18T06:23:33;-1.60;83.20
32217;DHT22;18709;51.140;4.088;2022-12-18T06:26:07;-1.60;83.30
32217;DHT22;18709;51.140;4.088;2022-12-18T06:28:33;-1.50;83.40
32217;DHT22;18709;51.140;4.088;2022-12-18T06:30:59;-1.60;83.30
32217;DHT22;18709;51.140;4.088;2022-12-18T06:33:27;-1.60;83.20
32217;DHT22;18709;51.140;4.088;2022-12-18T06:35:54;-1.60;83.60
32217;DHT22;18709;51.140;4.088;2022-12-18T06:38:19;-1.60;83.60
32217;DHT22;18709;51.140;4.088;2022-12-18T06:40:45;-1.60;83.60
32217;DHT22;18709;51.140;4.088;2022-12-18T06:43:11;-1.60;83.80
32217;DHT22;18709;51.140;4.088;2022-12-18T06:45:36;-1.60;83.60
32217;DHT22;18709;51.140;4.088;2022-12-18T06:48:02;-1.70;83.70
32217;DHT22;18709;51.140;4.088;2022-12-18T06:50:28;-1.70;84.20
32217;DHT22;18709;51.140;4.088;2022-12-18T06:52:53;-1.70;84.10
32217;DHT22;18709;51.140;4.088;2022-12-18T06:55:19;-1.70;84.20
32217;DHT22;18709;51.140;4.088;2022-12-18T06:57:45;-1.60;84.20
32217;DHT22;18709;51.140;4.088;2022-12-18T07:00:10;-1.70;84.30
32217;DHT22;18709;51.140;4.088;2022-12-18T07:02:36;-1.70;84.30
32217;DHT22;18709;51.140;4.088;2022-12-18T07:05:02;-1.70;84.20
32217;DHT22;18709;51.140;4.088;2022-12-18T07:07:28;-1.70;84.20
32217;DHT22;18709;51.140;4.088;2022-12-18T07:09:54;-1.70;84.50
32217;DHT22;18709;51.140;4.088;2022-12-18T07:12:19;-1.70;84.90
32217;DHT22;18709;51.140;4.088;2022-12-18T07:14:45;-1.70;84.70
32217;DHT22;18709;51.140;4.088;2022-12-18T07:17:10;-1.70;85.40
32217;DHT22;18709;51.140;4.088;2022-12-18T07:19:36;-1.70;84.60
32217;DHT22;18709;51.140;4.088;2022-12-18T07:22:02;-1.50;84.00
32217;DHT22;18709;51.140;4.088;2022-12-18T07:24:27;-1.50;83.80
32217;DHT22;18709;51.140;4.088;2022-12-18T07:26:53;-1.60;83.90
32217;DHT22;18709;51.140;4.088;2022-12-18T07:29:19;-1.60;83.70
32217;DHT22;18709;51.140;4.088;2022-12-18T07:31:45;-1.60;83.80
32217;DHT22;18709;51.140;4.088;2022-12-18T07:34:14;-1.60;83.60
32217;DHT22;18709;51.140;4.088;2022-12-18T07:36:40;-1.60;83.70
32217;DHT22;18709;51.140;4.088;2022-12-18T07:39:06;-1.60;83.50
32217;DHT22;18709;51.140;4.088;2022-12-18T07:41:32;-1.60;83.30
32217;DHT22;18709;51.140;4.088;2022-12-18T07:43:58;-1.60;83.30
32217;DHT22;18709;51.140;4.088;2022-12-18T07:46:23;-1.60;83.30
32217;DHT22;18709;51.140;4.088;2022-12-18T07:48:49;-1.60;83.30
32217;DHT22;18709;51.140;4.088;2022-12-18T07:51:15;-1.60;83.00
32217;DHT22;18709;51.140;4.088;2022-12-18T07:53:41;-1.70;83.70
32217;DHT22;18709;51.140;4.088;2022-12-18T07:56:09;-1.70;84.00
32217;DHT22;18709;51.140;4.088;2022-12-18T07:58:35;-1.70;84.20
32217;DHT22;18709;51.140;4.088;2022-12-18T08:01:09;-1.70;84.60
32217;DHT22;18709;51.140;4.088;2022-12-18T08:03:36;-1.70;84.60
32217;DHT22;18709;51.140;4.088;2022-12-18T08:06:07;-1.60;84.10
32217;DHT22;18709;51.140;4.088;2022-12-18T08:08:33;-1.50;83.40
32217;DHT22;18709;51.140;4.088;2022-12-18T08:10:59;-1.40;83.10
32217;DHT22;18709;51.140;4.088;2022-12-18T08:13:26;-1.30;83.00
32217;DHT22;18709;51.140;4.088;2022-12-18T08:16:02;-1.30;83.20
32217;DHT22;18709;51.140;4.088;2022-12-18T08:18:29;-1.30;82.90
32217;DHT22;18709;51.140;4.088;2022-12-18T08:20:55;-1.30;83.70
32217;DHT22;18709;51.140;4.088;2022-12-18T08:23:21;-1.20;83.40
32217;DHT22;18709;51.140;4.088;2022-12-18T08:25:46;-1.30;83.30
32217;DHT22;18709;51.140;4.088;2022-12-18T08:28:12;-1.20;83.50
32217;DHT22;18709;51.140;4.088;2022-12-18T08:30:38;-1.30;84.50
32217;DHT22;18709;51.140;4.088;2022-12-18T08:33:04;-1.30;84.80
32217;DHT22;18709;51.140;4.088;2022-12-18T08:35:30;-1.10;84.30
32217;DHT22;18709;51.140;4.088;2022-12-18T08:37:59;-1.10;84.50
32217;DHT22;18709;51.140;4.088;2022-12-18T08:40:25;-1.10;84.90
32217;DHT22;18709;51.140;4.088;2022-12-18T08:42:50;-0.90;84.50
32217;DHT22;18709;51.140;4.088;2022-12-18T08:45:55;-0.80;83.90
32217;DHT22;18709;51.140;4.088;2022-12-18T08:48:21;-0.60;83.00
32217;DHT22;18709;51.140;4.088;2022-12-18T08:50:57;-0.60;82.90
32217;DHT22;18709;51.140;4.088;2022-12-18T08:53:25;-0.50;83.10
32217;DHT22;18709;51.140;4.088;2022-12-18T08:55:50;-0.50;83.00
32217;DHT22;18709;51.140;4.088;2022-12-18T08:58:16;-0.40;83.20
32217;DHT22;18709;51.140;4.088;2022-12-18T09:00:41;-0.40;83.40
32217;DHT22;18709;51.140;4.088;2022-12-18T09:03:15;-0.30;83.00
32217;DHT22;18709;51.140;4.088;2022-12-18T09:05:41;-0.20;82.90
32217;DHT22;18709;51.140;4.088;2022-12-18T09:08:07;-0.20;83.00
32217;DHT22;18709;51.140;4.088;2022-12-18T09:10:32;-0.30;83.70
32217;DHT22;18709;51.140;4.088;2022-12-18T09:12:58;-0.20;83.50
32217;DHT22;18709;51.140;4.088;2022-12-18T09:15:24;-0.10;82.80
32217;DHT22;18709;51.140;4.088;2022-12-18T09:17:49;0.00;83.50
32217;DHT22;18709;51.140;4.088;2022-12-18T09:20:16;0.00;83.30
32217;DHT22;18709;51.140;4.088;2022-12-18T09:22:42;0.10;82.80
32217;DHT22;18709;51.140;4.088;2022-12-18T09:25:07;0.20;82.80
32217;DHT22;18709;51.140;4.088;2022-12-18T09:27:34;0.20;83.00
32217;DHT22;18709;51.140;4.088;2022-12-18T09:30:00;0.20;83.00
32217;DHT22;18709;51.140;4.088;2022-12-18T09:32:25;0.20;83.00
32217;DHT22;18709;51.140;4.088;2022-12-18T09:34:51;0.30;82.00
32217;DHT22;18709;51.140;4.088;2022-12-18T09:37:17;0.20;82.30
32217;DHT22;18709;51.140;4.088;2022-12-18T09:39:42;0.20;82.80
32217;DHT22;18709;51.140;4.088;2022-12-18T09:42:21;0.30;83.20
32217;DHT22;18709;51.140;4.088;2022-12-18T09:44:54;0.40;82.70
32217;DHT22;18709;51.140;4.088;2022-12-18T09:47:29;0.40;82.70
32217;DHT22;18709;51.140;4.088;2022-12-18T09:50:16;0.50;82.80
32217;DHT22;18709;51.140;4.088;2022-12-18T09:52:48;0.50;82.90
32217;DHT22;18709;51.140;4.088;2022-12-18T09:55:37;0.60;81.70
32217;DHT22;18709;51.140;4.088;2022-12-18T09:58:30;0.50;81.80
32217;DHT22;18709;51.140;4.088;2022-12-18T10:00:57;0.50;82.30
32217;DHT22;18709;51.140;4.088;2022-12-18T10:03:23;0.60;82.70
32217;DHT22;18709;51.140;4.088;2022-12-18T10:14:05;0.70;82.40
32217;DHT22;18709;51.140;4.088;2022-12-18T10:16:52;0.80;82.60
32217;DHT22;18709;51.140;4.088;2022-12-18T10:22:33;0.90;82.40
32217;DHT22;18709;51.140;4.088;2022-12-18T10:25:02;0.90;82.30
32217;DHT22;18709;51.140;4.088;2022-12-18T10:27:30;0.90;82.80
32217;DHT22;18709;51.140;4.088;2022-12-18T10:29:57;0.90;81.90
32217;DHT22;18709;51.140;4.088;2022-12-18T10:32:28;0.90;82.50
32217;DHT22;18709;51.140;4.088;2022-12-18T10:34:57;1.00;82.90
32217;DHT22;18709;51.140;4.088;2022-12-18T10:37:25;1.20;82.70
32217;DHT22;18709;51.140;4.088;2022-12-18T10:42:35;1.30;82.50
32217;DHT22;18709;51.140;4.088;2022-12-18T10:45:03;1.30;82.80
32217;DHT22;18709;51.140;4.088;2022-12-18T10:47:31;1.30;83.00
32217;DHT22;18709;51.140;4.088;2022-12-18T10:49:58;1.40;83.10
32217;DHT22;18709;51.140;4.088;2022-12-18T10:52:26;1.50;83.00
32217;DHT22;18709;51.140;4.088;2022-12-18T10:54:55;1.50;82.80
32217;DHT22;18709;51.140;4.088;2022-12-18T10:59:57;1.80;82.80
32217;DHT22;18709;51.140;4.088;2022-12-18T11:02:43;1.80;82.90
32217;DHT22;18709;51.140;4.088;2022-12-18T11:05:30;1.90;82.20
32217;DHT22;18709;51.140;4.088;2022-12-18T11:07:56;1.80;82.40
32217;DHT22;18709;51.140;4.088;2022-12-18T11:10:29;1.80;82.40
32217;DHT22;18709;51.140;4.088;2022-12-18T11:12:57;1.80;82.50
32217;DHT22;18709;51.140;4.088;2022-12-18T11:15:34;1.90;82.10
32217;DHT22;18709;51.140;4.088;2022-12-18T11:17:59;1.80;82.20
32217;DHT22;18709;51.140;4.088;2022-12-18T11:20:32;1.80;82.10
32217;DHT22;18709;51.140;4.088;2022-12-18T11:23:20;1.80;83.00
32217;DHT22;18709;51.140;4.088;2022-12-18T11:25:55;1.80;82.50
32217;DHT22;18709;51.140;4.088;2022-12-18T11:28:49;1.80;82.90
32217;DHT22;18709;51.140;4.088;2022-12-18T11:31:19;1.90;82.60
32217;DHT22;18709;51.140;4.088;2022-12-18T11:33:59;1.90;82.50
32217;DHT22;18709;51.140;4.088;2022-12-18T11:36:29;1.90;82.20
32217;DHT22;18709;51.140;4.088;2022-12-18T11:38:56;1.90;82.70
32217;DHT22;18709;51.140;4.088;2022-12-18T11:41:26;2.00;82.90
32217;DHT22;18709;51.140;4.088;2022-12-18T11:44:24;2.00;83.10
32217;DHT22;18709;51.140;4.088;2022-12-18T11:47:05;2.00;83.20
32217;DHT22;18709;51.140;4.088;2022-12-18T11:49:35;2.20;83.10
32217;DHT22;18709;51.140;4.088;2022-12-18T11:52:18;2.20;83.20
32217;DHT22;18709;51.140;4.088;2022-12-18T11:54:45;2.30;83.30
32217;DHT22;18709;51.140;4.088;2022-12-18T11:57:54;2.30;83.10
32217;DHT22;18709;51.140;4.088;2022-12-18T12:00:23;2.40;83.30
32217;DHT22;18709;51.140;4.088;2022-12-18T12:16:52;2.60;83.40
32217;DHT22;18709;51.140;4.088;2022-12-18T12:22:13;2.80;81.80
32217;DHT22;18709;51.140;4.088;2022-12-18T12:37:01;2.70;82.40
32217;DHT22;18709;51.140;4.088;2022-12-18T12:39:40;2.80;82.70
32217;DHT22;18709;51.140;4.088;2022-12-18T12:45:13;2.60;82.60
32217;DHT22;18709;51.140;4.088;2022-12-18T12:47:43;2.60;83.80
32217;DHT22;18709;51.140;4.088;2022-12-18T12:50:16;2.70;83.50
32217;DHT22;18709;51.140;4.088;2022-12-18T12:52:46;2.80;83.70
32217;DHT22;18709;51.140;4.088;2022-12-18T12:55:33;2.80;83.70
32217;DHT22;18709;51.140;4.088;2022-12-18T13:00:44;3.00;83.00
32217;DHT22;18709;51.140;4.088;2022-12-18T13:06:25;3.10;83.00
32217;DHT22;18709;51.140;4.088;2022-12-18T13:08:56;3.20;82.70
32217;DHT22;18709;51.140;4.088;2022-12-18T13:11:34;3.20;82.80
32217;DHT22;18709;51.140;4.088;2022-12-18T13:14:24;3.20;82.60
32217;DHT22;18709;51.140;4.088;2022-12-18T13:16:51;3.20;82.90
32217;DHT22;18709;51.140;4.088;2022-12-18T13:19:22;3.20;83.60
32217;DHT22;18709;51.140;4.088;2022-12-18T13:21:57;3.20;83.30
32217;DHT22;18709;51.140;4.088;2022-12-18T13:24:27;3.20;82.60
32217;DHT22;18709;51.140;4.088;2022-12-18T13:26:53;3.10;83.00
32217;DHT22;18709;51.140;4.088;2022-12-18T13:29:43;3.10;83.00
32217;DHT22;18709;51.140;4.088;2022-12-18T13:32:23;3.20;83.40
32217;DHT22;18709;51.140;4.088;2022-12-18T13:37:54;3.30;83.10
32217;DHT22;18709;51.140;4.088;2022-12-18T13:45:47;3.30;83.30
32217;DHT22;18709;51.140;4.088;2022-12-18T13:48:20;3.30;83.20
32217;DHT22;18709;51.140;4.088;2022-12-18T13:51:13;3.30;83.40
32217;DHT22;18709;51.140;4.088;2022-12-18T13:53:52;3.30;83.60
32217;DHT22;18709;51.140;4.088;2022-12-18T13:56:32;3.30;83.60
32217;DHT22;18709;51.140;4.088;2022-12-18T14:04:32;3.30;83.90
32217;DHT22;18709;51.140;4.088;2022-12-18T14:09:56;3.30;83.30
32217;DHT22;18709;51.140;4.088;2022-12-18T14:12:29;3.30;83.70
32217;DHT22;18709;51.140;4.088;2022-12-18T14:18:55;3.30;84.10
32217;DHT22;18709;51.140;4.088;2022-12-18T14:20:54;3.20;84.40
32217;DHT22;18709;51.140;4.088;2022-12-18T14:25:54;3.20;84.60
32217;DHT22;18709;51.140;4.088;2022-12-18T14:28:20;3.20;84.70
32217;DHT22;18709;51.140;4.088;2022-12-18T14:30:47;3.20;84.60
32217;DHT22;18709;51.140;4.088;2022-12-18T14:33:18;3.20;84.60
32217;DHT22;18709;51.140;4.088;2022-12-18T14:35:55;3.20;84.80
32217;DHT22;18709;51.140;4.088;2022-12-18T14:41:12;3.10;85.00
32217;DHT22;18709;51.140;4.088;2022-12-18T14:43:40;3.10;84.90
32217;DHT22;18709;51.140;4.088;2022-12-18T14:48:56;3.10;85.20
32217;DHT22;18709;51.140;4.088;2022-12-18T14:51:42;3.10;85.10
32217;DHT22;18709;51.140;4.088;2022-12-18T14:54:16;3.20;84.80
32217;DHT22;18709;51.140;4.088;2022-12-18T14:56:45;3.10;84.70
32217;DHT22;18709;51.140;4.088;2022-12-18T14:59:16;3.10;84.50
32217;DHT22;18709;51.140;4.088;2022-12-18T15:04:38;3.20;83.00
32217;DHT22;18709;51.140;4.088;2022-12-18T15:07:16;3.20;83.30
32217;DHT22;18709;51.140;4.088;2022-12-18T15:09:44;3.10;82.80
32217;DHT22;18709;51.140;4.088;2022-12-18T15:12:45;3.10;83.80
32217;DHT22;18709;51.140;4.088;2022-12-18T15:17:59;3.00;83.60
32217;DHT22;18709;51.140;4.088;2022-12-18T15:20:25;3.00;83.30
32217;DHT22;18709;51.140;4.088;2022-12-18T15:22:51;2.90;84.20
32217;DHT22;18709;51.140;4.088;2022-12-18T15:25:37;2.90;84.40
32217;DHT22;18709;51.140;4.088;2022-12-18T15:28:04;3.00;84.10
32217;DHT22;18709;51.140;4.088;2022-12-18T15:30:58;3.10;83.10
32217;DHT22;18709;51.140;4.088;2022-12-18T15:33:26;3.10;83.20
32217;DHT22;18709;51.140;4.088;2022-12-18T15:36:00;3.20;82.60
32217;DHT22;18709;51.140;4.088;2022-12-18T15:38:27;3.10;83.40
32217;DHT22;18709;51.140;4.088;2022-12-18T15:40:53;3.10;83.60
32217;DHT22;18709;51.140;4.088;2022-12-18T15:43:21;3.10;83.00
32217;DHT22;18709;51.140;4.088;2022-12-18T15:46:04;3.20;82.90
32217;DHT22;18709;51.140;4.088;2022-12-18T15:48:36;3.20;83.10
32217;DHT22;18709;51.140;4.088;2022-12-18T15:51:05;3.20;82.90
32217;DHT22;18709;51.140;4.088;2022-12-18T15:53:35;3.10;83.50
32217;DHT22;18709;51.140;4.088;2022-12-18T15:56:00;3.00;83.90
32217;DHT22;18709;51.140;4.088;2022-12-18T15:58:44;3.10;83.60
32217;DHT22;18709;51.140;4.088;2022-12-18T16:01:10;3.20;83.50
32217;DHT22;18709;51.140;4.088;2022-12-18T16:03:36;3.20;82.80
32217;DHT22;18709;51.140;4.088;2022-12-18T16:06:02;3.20;83.10
32217;DHT22;18709;51.140;4.088;2022-12-18T16:08:29;3.20;83.10
32217;DHT22;18709;51.140;4.088;2022-12-18T16:10:56;3.20;83.60
32217;DHT22;18709;51.140;4.088;2022-12-18T16:13:23;3.20;83.10
32217;DHT22;18709;51.140;4.088;2022-12-18T16:15:49;3.20;82.60
32217;DHT22;18709;51.140;4.088;2022-12-18T16:18:15;3.30;82.60
32217;DHT22;18709;51.140;4.088;2022-12-18T16:20:41;3.20;83.60
32217;DHT22;18709;51.140;4.088;2022-12-18T16:23:06;3.10;83.80
32217;DHT22;18709;51.140;4.088;2022-12-18T16:25:32;3.20;83.80
32217;DHT22;18709;51.140;4.088;2022-12-18T16:27:58;3.30;83.10
32217;DHT22;18709;51.140;4.088;2022-12-18T16:30:27;3.20;83.00
32217;DHT22;18709;51.140;4.088;2022-12-18T16:32:56;3.30;83.00
32217;DHT22;18709;51.140;4.088;2022-12-18T16:35:25;3.30;83.40
32217;DHT22;18709;51.140;4.088;2022-12-18T16:37:51;3.30;83.20
32217;DHT22;18709;51.140;4.088;2022-12-18T16:40:18;3.30;83.10
32217;DHT22;18709;51.140;4.088;2022-12-18T16:42:45;3.20;83.60
32217;DHT22;18709;51.140;4.088;2022-12-18T16:45:14;3.20;83.80
32217;DHT22;18709;51.140;4.088;2022-12-18T16:47:40;3.10;84.30
32217;DHT22;18709;51.140;4.088;2022-12-18T16:50:07;3.20;83.60
32217;DHT22;18709;51.140;4.088;2022-12-18T16:52:33;3.20;83.40
32217;DHT22;18709;51.140;4.088;2022-12-18T16:54:59;3.30;82.80
32217;DHT22;18709;51.140;4.088;2022-12-18T16:57:25;3.30;82.90
32217;DHT22;18709;51.140;4.088;2022-12-18T16:59:51;3.20;83.50
32217;DHT22;18709;51.140;4.088;2022-12-18T17:02:19;3.30;82.80
32217;DHT22;18709;51.140;4.088;2022-12-18T17:04:45;3.30;83.00
32217;DHT22;18709;51.140;4.088;2022-12-18T17:07:11;3.30;82.40
32217;DHT22;18709;51.140;4.088;2022-12-18T17:09:37;3.40;82.80
32217;DHT22;18709;51.140;4.088;2022-12-18T17:12:03;3.40;82.40
32217;DHT22;18709;51.140;4.088;2022-12-18T17:14:29;3.40;82.20
32217;DHT22;18709;51.140;4.088;2022-12-18T17:16:55;3.40;82.40
32217;DHT22;18709;51.140;4.088;2022-12-18T17:19:25;3.40;83.10
32217;DHT22;18709;51.140;4.088;2022-12-18T17:21:51;3.30;84.10
32217;DHT22;18709;51.140;4.088;2022-12-18T17:24:17;3.30;84.40
32217;DHT22;18709;51.140;4.088;2022-12-18T17:26:43;3.40;84.70
32217;DHT22;18709;51.140;4.088;2022-12-18T17:29:13;3.40;84.60
32217;DHT22;18709;51.140;4.088;2022-12-18T17:31:38;3.50;84.30
32217;DHT22;18709;51.140;4.088;2022-12-18T17:34:04;3.60;84.90
32217;DHT22;18709;51.140;4.088;2022-12-18T17:36:30;3.60;84.80
32217;DHT22;18709;51.140;4.088;2022-12-18T17:38:58;3.60;84.50
32217;DHT22;18709;51.140;4.088;2022-12-18T17:41:25;3.60;84.80
32217;DHT22;18709;51.140;4.088;2022-12-18T17:43:52;3.60;85.20